createdAt,value
2019-01-08T00:00:50.305Z,6.5
2019-01-08T00:01:50.974Z,6.5
2019-01-08T00:02:51.641Z,6.5
2019-01-08T00:03:52.366Z,6.6
2019-01-08T00:04:52.993Z,6.7
2019-01-08T00:05:53.661Z,6.6
2019-01-08T00:06:54.329Z,6.6
2019-01-08T00:07:54.997Z,6.6
2019-01-08T00:08:55.668Z,6.6
2019-01-08T00:09:56.337Z,6.6
2019-01-08T00:10:57.007Z,6.7
2019-01-08T00:11:57.674Z,6.6
2019-01-08T00:12:58.346Z,6.7
2019-01-08T00:13:59.011Z,6.7
2019-01-08T00:14:59.681Z,6.6
2019-01-08T00:16:00.349Z,6.7
2019-01-08T00:17:01.020Z,6.7
2019-01-08T00:18:01.689Z,6.6
2019-01-08T00:19:02.358Z,6.7
2019-01-08T00:20:03.027Z,6.6
2019-01-08T00:21:03.698Z,6.6
2019-01-08T00:22:04.364Z,6.7
2019-01-08T00:23:05.034Z,6.7
2019-01-08T00:24:05.702Z,6.7
2019-01-08T00:25:06.372Z,6.7
2019-01-08T00:26:07.041Z,6.7
2019-01-08T00:27:07.710Z,6.6
2019-01-08T00:28:08.377Z,6.6
2019-01-08T00:29:09.048Z,6.7
2019-01-08T00:30:09.717Z,6.7
2019-01-08T00:31:10.386Z,6.6
2019-01-08T00:32:11.057Z,6.7
2019-01-08T00:33:11.726Z,6.7
2019-01-08T00:34:12.394Z,6.6
2019-01-08T00:35:13.065Z,6.7
2019-01-08T00:36:13.733Z,6.7
2019-01-08T00:37:14.450Z,6.7
2019-01-08T00:38:15.120Z,6.7
2019-01-08T00:39:15.789Z,6.7
2019-01-08T00:40:16.459Z,6.7
2019-01-08T00:41:17.127Z,6.8
2019-01-08T00:42:17.796Z,6.8
2019-01-08T00:43:18.465Z,6.8
2019-01-08T00:44:19.136Z,6.7
2019-01-08T00:45:19.804Z,6.8
2019-01-08T00:46:20.474Z,6.9
2019-01-08T00:47:21.142Z,6.8
2019-01-08T00:48:21.813Z,6.8
2019-01-08T00:49:22.482Z,6.8
2019-01-08T00:50:23.152Z,6.9
2019-01-08T00:51:23.819Z,6.9
2019-01-08T00:52:24.489Z,6.9
2019-01-08T00:53:25.161Z,6.9
2019-01-08T00:54:25.828Z,6.9
2019-01-08T00:55:26.495Z,6.9
2019-01-08T00:56:27.166Z,6.9
2019-01-08T00:57:27.836Z,7.0
2019-01-08T00:58:28.505Z,6.9
2019-01-08T00:59:29.174Z,6.9
2019-01-08T01:00:29.845Z,6.9
2019-01-08T01:01:30.514Z,6.8
2019-01-08T01:02:31.185Z,6.9
2019-01-08T01:03:31.852Z,6.9
2019-01-08T01:04:32.522Z,6.9
2019-01-08T01:05:33.190Z,6.9
2019-01-08T01:06:33.912Z,6.8
2019-01-08T01:07:34.582Z,6.9
2019-01-08T01:08:35.325Z,6.8
2019-01-08T01:09:35.945Z,6.8
2019-01-08T01:10:36.613Z,6.8
2019-01-08T01:11:37.283Z,6.9
2019-01-08T01:12:37.953Z,6.7
2019-01-08T01:13:38.625Z,6.7
2019-01-08T01:14:39.344Z,6.7
2019-01-08T01:15:40.014Z,6.6
2019-01-08T01:16:40.686Z,6.6
2019-01-08T01:17:41.406Z,6.6
2019-01-08T01:18:42.075Z,6.5
2019-01-08T01:19:42.747Z,6.3
2019-01-08T01:20:43.418Z,6.3
2019-01-08T01:21:44.089Z,6.2
2019-01-08T01:22:44.760Z,6.2
2019-01-08T01:23:45.430Z,6.2
2019-01-08T01:24:46.101Z,6.2
2019-01-08T01:25:46.772Z,6.2
2019-01-08T01:26:47.443Z,6.2
2019-01-08T01:27:48.111Z,6.1
2019-01-08T01:28:48.781Z,6.1
2019-01-08T01:29:49.455Z,6.0
2019-01-08T01:30:50.121Z,6.1
2019-01-08T01:31:50.792Z,6.0
2019-01-08T01:32:51.461Z,6.0
2019-01-08T01:33:52.133Z,6.1
2019-01-08T01:34:52.801Z,6.1
2019-01-08T01:35:53.519Z,6.1
2019-01-08T01:36:54.191Z,6.1
2019-01-08T01:37:54.862Z,6.1
2019-01-08T01:38:55.579Z,6.1
2019-01-08T01:39:56.249Z,6.1
2019-01-08T01:40:56.918Z,6.1
2019-01-08T01:41:57.590Z,6.2
2019-01-08T01:42:58.259Z,6.1
2019-01-08T01:43:58.934Z,6.2
2019-01-08T01:44:59.648Z,6.1
2019-01-08T01:46:00.318Z,6.1
2019-01-08T01:47:00.990Z,6.2
2019-01-08T01:48:01.660Z,6.2
2019-01-08T01:49:02.329Z,6.2
2019-01-08T01:50:03.001Z,6.2
2019-01-08T01:51:03.672Z,6.3
2019-01-08T01:52:04.341Z,6.3
2019-01-08T01:53:05.068Z,6.3
2019-01-08T01:54:05.730Z,6.3
2019-01-08T01:55:06.401Z,6.3
2019-01-08T01:56:07.070Z,6.3
2019-01-08T01:57:07.742Z,6.4
2019-01-08T01:58:08.416Z,6.4
2019-01-08T01:59:09.083Z,6.4
2019-01-08T02:00:09.755Z,6.4
2019-01-08T02:01:10.476Z,6.4
2019-01-08T02:02:11.144Z,6.4
2019-01-08T02:03:11.814Z,6.5
2019-01-08T02:04:12.484Z,6.4
2019-01-08T02:05:13.153Z,6.4
2019-01-08T02:06:13.821Z,6.4
2019-01-08T02:07:14.492Z,6.4
2019-01-08T02:08:15.162Z,6.5
2019-01-08T02:09:15.832Z,6.5
2019-01-08T02:10:16.501Z,6.5
2019-01-08T02:11:17.173Z,6.4
2019-01-08T02:12:17.844Z,6.4
2019-01-08T02:13:18.513Z,6.4
2019-01-08T02:14:19.184Z,6.4
2019-01-08T02:15:19.854Z,6.4
2019-01-08T02:16:20.525Z,6.4
2019-01-08T02:17:21.194Z,6.4
2019-01-08T02:18:21.865Z,6.4
2019-01-08T02:19:22.534Z,6.4
2019-01-08T02:20:23.203Z,6.4
2019-01-08T02:21:23.877Z,6.4
2019-01-08T02:22:24.594Z,6.4
2019-01-08T02:23:25.261Z,6.4
2019-01-08T02:24:25.934Z,6.5
2019-01-08T02:25:26.649Z,6.4
2019-01-08T02:26:27.330Z,6.4
2019-01-08T02:27:28.040Z,6.5
2019-01-08T02:28:28.710Z,6.5
2019-01-08T02:29:29.381Z,6.4
2019-01-08T02:30:30.051Z,6.5
2019-01-08T02:31:30.722Z,6.5
2019-01-08T02:32:31.391Z,6.5
2019-01-08T02:33:32.063Z,6.5
2019-01-08T02:34:32.735Z,6.5
2019-01-08T02:35:33.405Z,6.5
2019-01-08T02:36:34.074Z,6.4
2019-01-08T02:37:34.743Z,6.4
2019-01-08T02:38:35.415Z,6.4
2019-01-08T02:39:36.085Z,6.5
2019-01-08T02:40:36.758Z,6.4
2019-01-08T02:41:37.475Z,6.4
2019-01-08T02:42:38.142Z,6.4
2019-01-08T02:43:38.813Z,6.4
2019-01-08T02:44:39.600Z,6.4
2019-01-08T02:45:40.242Z,6.5
2019-01-08T02:46:41.061Z,6.5
2019-01-08T02:47:41.629Z,6.6
2019-01-08T02:48:42.342Z,6.6
2019-01-08T02:49:43.013Z,6.5
2019-01-08T02:50:43.682Z,6.6
2019-01-08T02:51:44.350Z,6.6
2019-01-08T02:52:45.021Z,6.7
2019-01-08T02:53:45.692Z,6.6
2019-01-08T02:54:46.393Z,6.7
2019-01-08T02:55:47.135Z,6.7
2019-01-08T02:56:47.805Z,6.6
2019-01-08T02:57:48.476Z,6.7
2019-01-08T02:58:49.146Z,6.6
2019-01-08T02:59:49.817Z,6.6
2019-01-08T03:00:50.487Z,6.7
2019-01-08T03:01:51.160Z,6.8
2019-01-08T03:02:51.829Z,6.7
2019-01-08T03:03:52.498Z,6.8
2019-01-08T03:04:53.177Z,6.8
2019-01-08T03:05:53.841Z,6.7
2019-01-08T03:06:54.513Z,6.8
2019-01-08T03:07:55.180Z,6.8
2019-01-08T03:08:55.853Z,6.9
2019-01-08T03:09:56.521Z,6.9
2019-01-08T03:10:57.192Z,6.8
2019-01-08T03:11:57.861Z,6.9
2019-01-08T03:12:58.530Z,6.8
2019-01-08T03:13:59.202Z,6.8
2019-01-08T03:14:59.871Z,6.9
2019-01-08T03:16:00.544Z,6.8
2019-01-08T03:17:01.263Z,6.9
2019-01-08T03:18:01.933Z,6.9
2019-01-08T03:19:02.656Z,6.8
2019-01-08T03:20:03.325Z,6.8
2019-01-08T03:21:03.994Z,6.7
2019-01-08T03:22:04.666Z,6.9
2019-01-08T03:23:05.336Z,6.9
2019-01-08T03:24:06.005Z,6.9
2019-01-08T03:25:06.674Z,6.9
2019-01-08T03:26:07.349Z,6.9
2019-01-08T03:27:08.017Z,6.9
2019-01-08T03:28:08.686Z,6.9
2019-01-08T03:29:09.360Z,7.0
2019-01-08T03:30:10.038Z,6.9
2019-01-08T03:31:10.701Z,6.9
2019-01-08T03:32:11.423Z,6.9
2019-01-08T03:33:12.136Z,6.9
2019-01-08T03:34:12.805Z,6.8
2019-01-08T03:35:13.476Z,6.9
2019-01-08T03:36:14.149Z,6.9
2019-01-08T03:37:14.818Z,6.9
2019-01-08T03:38:15.489Z,6.9
2019-01-08T03:39:16.161Z,6.8
2019-01-08T03:40:16.831Z,6.8
2019-01-08T03:41:17.503Z,6.7
2019-01-08T03:42:18.170Z,6.7
2019-01-08T03:43:18.842Z,6.7
2019-01-08T03:44:19.511Z,6.7
2019-01-08T03:45:20.181Z,6.7
2019-01-08T03:46:20.851Z,6.7
2019-01-08T03:47:21.522Z,6.6
2019-01-08T03:48:22.192Z,6.6
2019-01-08T03:49:22.861Z,6.6
2019-01-08T03:50:23.532Z,6.5
2019-01-08T03:51:24.201Z,6.6
2019-01-08T03:52:24.871Z,6.5
2019-01-08T03:53:25.540Z,6.5
2019-01-08T03:54:26.211Z,6.4
2019-01-08T03:55:26.883Z,6.4
2019-01-08T03:56:27.551Z,6.4
2019-01-08T03:57:28.220Z,6.4
2019-01-08T03:58:28.892Z,6.3
2019-01-08T03:59:29.563Z,6.4
2019-01-08T04:00:30.232Z,6.3
2019-01-08T04:01:30.904Z,6.3
2019-01-08T04:02:31.572Z,6.3
2019-01-08T04:03:32.242Z,6.3
2019-01-08T04:04:32.912Z,6.3
2019-01-08T04:05:33.584Z,6.1
2019-01-08T04:06:34.254Z,6.1
2019-01-08T04:07:34.923Z,6.1
2019-01-08T04:08:35.595Z,6.2
2019-01-08T04:09:36.265Z,6.2
2019-01-08T04:10:36.936Z,6.2
2019-01-08T04:11:37.607Z,6.2
2019-01-08T04:12:38.324Z,6.2
2019-01-08T04:13:38.994Z,6.2
2019-01-08T04:14:39.664Z,6.2
2019-01-08T04:15:40.335Z,6.2
2019-01-08T04:16:41.006Z,6.2
2019-01-08T04:17:41.674Z,6.1
2019-01-08T04:18:42.343Z,6.2
2019-01-08T04:19:43.015Z,6.2
2019-01-08T04:20:43.686Z,6.1
2019-01-08T04:21:44.354Z,6.2
2019-01-08T04:22:45.026Z,6.2
2019-01-08T04:23:45.695Z,6.2
2019-01-08T04:24:46.366Z,6.2
2019-01-08T04:25:47.034Z,6.1
2019-01-08T04:26:47.705Z,6.2
2019-01-08T04:27:48.376Z,6.1
2019-01-08T04:28:49.045Z,6.1
2019-01-08T04:29:50.681Z,6.1
2019-01-08T04:30:51.378Z,6.1
2019-01-08T04:31:52.048Z,6.1
2019-01-08T04:32:52.718Z,6.0
2019-01-08T04:33:53.387Z,6.0
2019-01-08T04:34:54.056Z,6.0
2019-01-08T04:35:54.728Z,6.0
2019-01-08T04:36:55.397Z,6.1
2019-01-08T04:37:56.068Z,6.1
2019-01-08T04:38:56.737Z,6.0
2019-01-08T04:39:57.409Z,6.0
2019-01-08T04:40:58.078Z,6.0
2019-01-08T04:41:58.749Z,6.0
2019-01-08T04:42:59.417Z,5.9
2019-01-08T04:44:00.089Z,6.0
2019-01-08T04:45:00.758Z,6.0
2019-01-08T04:46:01.428Z,5.9
2019-01-08T04:47:02.147Z,5.9
2019-01-08T04:48:02.818Z,6.0
2019-01-08T04:49:03.486Z,5.9
2019-01-08T04:50:04.155Z,5.9
2019-01-08T04:51:04.826Z,5.9
2019-01-08T04:52:05.497Z,6.0
2019-01-08T04:53:06.165Z,5.9
2019-01-08T04:54:06.836Z,6.0
2019-01-08T04:55:07.555Z,6.0
2019-01-08T04:56:08.225Z,6.0
2019-01-08T04:57:08.946Z,5.9
2019-01-08T04:58:09.615Z,6.0
2019-01-08T04:59:10.285Z,6.0
2019-01-08T05:00:10.957Z,5.9
2019-01-08T05:01:11.626Z,5.9
2019-01-08T05:02:12.295Z,6.0
2019-01-08T05:03:12.964Z,6.0
2019-01-08T05:04:13.686Z,5.9
2019-01-08T05:05:14.356Z,6.0
2019-01-08T05:06:15.027Z,5.9
2019-01-08T05:07:15.697Z,5.9
2019-01-08T05:08:16.366Z,5.9
2019-01-08T05:09:17.035Z,5.9
2019-01-08T05:10:17.707Z,5.8
2019-01-08T05:11:18.375Z,5.9
2019-01-08T05:12:19.046Z,5.9
2019-01-08T05:13:19.714Z,5.9
2019-01-08T05:14:20.386Z,5.9
2019-01-08T05:15:21.055Z,5.9
2019-01-08T05:16:21.723Z,5.9
2019-01-08T05:17:22.392Z,6.0
2019-01-08T05:18:23.065Z,6.1
2019-01-08T05:19:23.733Z,6.0
2019-01-08T05:20:24.402Z,6.1
2019-01-08T05:21:25.074Z,6.2
2019-01-08T05:22:25.743Z,6.2
2019-01-08T05:23:26.414Z,6.3
2019-01-08T05:24:27.082Z,6.3
2019-01-08T05:25:27.753Z,6.3
2019-01-08T05:26:28.426Z,6.2
2019-01-08T05:27:29.139Z,6.3
2019-01-08T05:28:29.765Z,6.4
2019-01-08T05:29:30.434Z,6.4
2019-01-08T05:30:31.106Z,6.4
2019-01-08T05:31:31.775Z,6.4
2019-01-08T05:32:32.447Z,6.4
2019-01-08T05:33:33.117Z,6.5
2019-01-08T05:34:33.786Z,6.5
2019-01-08T05:35:34.459Z,6.5
2019-01-08T05:36:35.128Z,6.5
2019-01-08T05:37:35.799Z,6.5
2019-01-08T05:38:36.468Z,6.5
2019-01-08T05:39:37.141Z,6.5
2019-01-08T05:40:37.809Z,6.5
2019-01-08T05:41:38.479Z,6.5
2019-01-08T05:42:39.210Z,6.6
2019-01-08T05:43:39.872Z,6.6
2019-01-08T05:44:40.539Z,6.6
2019-01-08T05:45:41.209Z,6.6
2019-01-08T05:46:41.879Z,6.6
2019-01-08T05:47:42.550Z,6.6
2019-01-08T05:48:43.218Z,6.7
2019-01-08T05:49:43.921Z,6.7
2019-01-08T05:50:44.660Z,6.7
2019-01-08T05:51:45.330Z,6.6
2019-01-08T05:52:46.001Z,6.7
2019-01-08T05:53:46.671Z,6.6
2019-01-08T05:54:47.340Z,6.7
2019-01-08T05:55:48.011Z,6.7
2019-01-08T05:56:48.680Z,6.6
2019-01-08T05:57:49.351Z,6.6
2019-01-08T05:58:50.073Z,6.6
2019-01-08T05:59:50.740Z,6.6
2019-01-08T06:00:51.414Z,6.6
2019-01-08T06:01:52.081Z,6.6
2019-01-08T06:02:52.753Z,6.5
2019-01-08T06:03:53.424Z,6.6
2019-01-08T06:04:54.198Z,6.5
2019-01-08T06:05:54.822Z,6.5
2019-01-08T06:06:55.492Z,6.5
2019-01-08T06:07:56.161Z,6.4
2019-01-08T06:08:56.834Z,6.4
2019-01-08T06:09:57.551Z,6.4
2019-01-08T06:10:58.220Z,6.4
2019-01-08T06:11:58.892Z,6.4
2019-01-08T06:12:59.561Z,6.3
2019-01-08T06:14:00.232Z,6.4
2019-01-08T06:15:00.902Z,6.4
2019-01-08T06:16:01.573Z,6.4
2019-01-08T06:17:02.243Z,6.5
2019-01-08T06:18:02.913Z,6.4
2019-01-08T06:19:03.587Z,6.4
2019-01-08T06:20:04.255Z,6.5
2019-01-08T06:21:04.924Z,6.5
2019-01-08T06:22:05.595Z,6.5
2019-01-08T06:23:06.263Z,6.4
2019-01-08T06:24:06.938Z,6.5
2019-01-08T06:25:07.607Z,6.6
2019-01-08T06:26:08.318Z,6.6
2019-01-08T06:27:09.036Z,6.6
2019-01-08T06:28:09.696Z,6.7
2019-01-08T06:29:10.363Z,6.7
2019-01-08T06:30:11.032Z,6.7
2019-01-08T06:31:11.749Z,6.7
2019-01-08T06:32:12.419Z,6.8
2019-01-08T06:33:13.090Z,6.8
2019-01-08T06:34:13.806Z,6.8
2019-01-08T06:35:14.472Z,6.8
2019-01-08T06:36:15.140Z,6.9
2019-01-08T06:37:15.811Z,6.8
2019-01-08T06:38:16.481Z,6.9
2019-01-08T06:39:17.148Z,6.8
2019-01-08T06:40:17.817Z,6.9
2019-01-08T06:41:18.486Z,6.9
2019-01-08T06:42:19.155Z,6.8
2019-01-08T06:43:19.823Z,6.9
2019-01-08T06:44:20.492Z,6.9
2019-01-08T06:45:21.160Z,6.9
2019-01-08T06:46:21.831Z,7.0
2019-01-08T06:47:22.500Z,6.9
2019-01-08T06:48:23.167Z,6.9
2019-01-08T06:49:23.836Z,6.9
2019-01-08T06:50:24.507Z,6.9
2019-01-08T06:51:25.177Z,6.9
2019-01-08T06:52:25.845Z,6.9
2019-01-08T06:53:26.515Z,6.9
2019-01-08T06:54:27.185Z,6.9
2019-01-08T06:55:27.855Z,6.9
2019-01-08T06:56:28.528Z,6.8
2019-01-08T06:57:29.195Z,6.9
2019-01-08T06:58:29.864Z,6.9
2019-01-08T06:59:30.534Z,6.8
2019-01-08T07:00:33.489Z,6.7
2019-01-08T07:01:32.863Z,6.8
2019-01-08T07:02:33.532Z,6.8
2019-01-08T07:03:34.201Z,6.8
2019-01-08T07:04:34.877Z,6.8
2019-01-08T07:05:35.614Z,6.7
2019-01-08T07:06:36.255Z,6.8
2019-01-08T07:07:36.925Z,6.8
2019-01-08T07:08:37.600Z,6.9
2019-01-08T07:09:38.265Z,6.9
2019-01-08T07:10:38.935Z,6.9
2019-01-08T07:11:39.608Z,6.8
2019-01-08T07:12:40.277Z,6.9
2019-01-08T07:13:40.947Z,6.8
2019-01-08T07:14:41.617Z,6.9
2019-01-08T07:15:42.289Z,7.0
2019-01-08T07:16:42.960Z,7.0
2019-01-08T07:17:43.631Z,6.9
2019-01-08T07:18:44.300Z,7.0
2019-01-08T07:19:44.972Z,6.9
2019-01-08T07:20:45.642Z,6.9
2019-01-08T07:21:46.311Z,6.9
2019-01-08T07:22:46.983Z,7.0
2019-01-08T07:23:47.653Z,7.0
2019-01-08T07:24:48.326Z,7.0
2019-01-08T07:25:48.998Z,7.0
2019-01-08T07:26:49.666Z,7.1
2019-01-08T07:27:50.338Z,7.1
2019-01-08T07:28:51.057Z,7.1
2019-01-08T07:29:51.729Z,7.0
2019-01-08T07:30:52.400Z,7.1
2019-01-08T07:31:53.071Z,6.9
2019-01-08T07:32:53.746Z,6.9
2019-01-08T07:33:54.464Z,6.8
2019-01-08T07:34:55.136Z,6.9
2019-01-08T07:35:55.809Z,6.7
2019-01-08T07:36:56.481Z,6.7
2019-01-08T07:37:57.152Z,6.7
2019-01-08T07:38:57.825Z,6.5
2019-01-08T07:39:58.497Z,6.4
2019-01-08T07:40:59.167Z,6.3
2019-01-08T07:41:59.839Z,6.2
2019-01-08T07:43:00.511Z,6.2
2019-01-08T07:44:01.183Z,6.1
2019-01-08T07:45:01.917Z,6.2
2019-01-08T07:46:02.578Z,6.1
2019-01-08T07:47:03.300Z,6.1
2019-01-08T07:48:03.972Z,6.0
2019-01-08T07:49:04.690Z,6.0
2019-01-08T07:50:05.367Z,6.0
2019-01-08T07:51:06.035Z,6.1
2019-01-08T07:52:06.706Z,6.0
2019-01-08T07:53:07.381Z,6.0
2019-01-08T07:54:08.055Z,6.0
2019-01-08T07:55:08.725Z,6.1
2019-01-08T07:56:09.398Z,6.0
2019-01-08T07:57:10.069Z,6.1
2019-01-08T07:58:10.740Z,6.1
2019-01-08T07:59:11.416Z,6.0
2019-01-08T08:00:12.138Z,6.0
2019-01-08T08:01:12.807Z,6.1
2019-01-08T08:02:13.480Z,6.1
2019-01-08T08:03:14.153Z,6.1
2019-01-08T08:04:14.827Z,6.0
2019-01-08T08:05:15.501Z,6.0
2019-01-08T08:06:16.173Z,6.1
2019-01-08T08:07:16.844Z,6.1
2019-01-08T08:08:17.516Z,6.1
2019-01-08T08:09:18.190Z,6.1
2019-01-08T08:10:18.862Z,6.1
2019-01-08T08:11:19.536Z,6.0
2019-01-08T08:12:20.210Z,6.1
2019-01-08T08:13:20.885Z,6.0
2019-01-08T08:14:21.557Z,6.1
2019-01-08T08:15:22.230Z,6.1
2019-01-08T08:16:22.903Z,6.1
2019-01-08T08:17:23.577Z,6.1
2019-01-08T08:18:24.282Z,6.1
2019-01-08T08:19:24.957Z,6.0
2019-01-08T08:20:25.628Z,6.0
2019-01-08T08:21:26.301Z,5.9
2019-01-08T08:22:27.022Z,6.0
2019-01-08T08:23:27.694Z,5.9
2019-01-08T08:24:28.402Z,5.9
2019-01-08T08:25:29.042Z,5.9
2019-01-08T08:26:29.716Z,5.8
2019-01-08T08:27:30.387Z,5.8
2019-01-08T08:28:31.062Z,5.8
2019-01-08T08:29:31.736Z,5.8
2019-01-08T08:30:32.408Z,5.7
2019-01-08T08:31:33.082Z,5.8
2019-01-08T08:32:33.754Z,5.8
2019-01-08T08:33:34.427Z,5.8
2019-01-08T08:34:35.098Z,5.8
2019-01-08T08:35:35.773Z,5.8
2019-01-08T08:36:36.448Z,5.8
2019-01-08T08:37:37.123Z,5.8
2019-01-08T08:38:37.795Z,5.8
2019-01-08T08:39:38.469Z,5.8
2019-01-08T08:40:39.143Z,5.8
2019-01-08T08:41:39.815Z,5.8
2019-01-08T08:42:40.489Z,5.8
2019-01-08T08:43:41.162Z,5.9
2019-01-08T08:44:41.834Z,5.9
2019-01-08T08:45:42.511Z,5.9
2019-01-08T08:46:43.184Z,5.9
2019-01-08T08:47:43.855Z,5.9
2019-01-08T08:48:44.527Z,5.8
2019-01-08T08:49:45.199Z,5.9
2019-01-08T08:50:45.874Z,5.9
2019-01-08T08:51:46.546Z,5.9
2019-01-08T08:52:47.220Z,6.0
2019-01-08T08:53:52.407Z,6.0
2019-01-08T08:54:49.558Z,6.1
2019-01-08T08:55:50.235Z,6.0
2019-01-08T08:56:50.908Z,6.1
2019-01-08T08:57:51.582Z,6.1
2019-01-08T08:58:52.259Z,6.2
2019-01-08T08:59:52.933Z,6.0
2019-01-08T09:00:53.602Z,6.1
2019-01-08T09:01:54.276Z,6.0
2019-01-08T09:02:54.948Z,6.1
2019-01-08T09:03:55.623Z,6.1
2019-01-08T09:04:56.299Z,6.1
2019-01-08T09:05:56.971Z,6.2
2019-01-08T09:06:57.647Z,6.1
2019-01-08T09:07:58.320Z,6.2
2019-01-08T09:08:58.994Z,6.2
2019-01-08T09:09:59.669Z,6.3
2019-01-08T09:11:00.392Z,6.3
2019-01-08T09:12:01.068Z,6.3
2019-01-08T09:13:01.743Z,6.3
2019-01-08T09:14:02.416Z,6.3
2019-01-08T09:15:03.091Z,6.3
2019-01-08T09:16:03.764Z,6.3
2019-01-08T09:17:04.439Z,6.2
2019-01-08T09:18:05.113Z,6.2
2019-01-08T09:19:05.834Z,6.2
2019-01-08T09:20:06.502Z,6.2
2019-01-08T09:21:07.178Z,6.2
2019-01-08T09:22:07.849Z,6.2
2019-01-08T09:23:08.524Z,6.0
2019-01-08T09:24:09.202Z,6.1
2019-01-08T09:25:09.923Z,6.2
2019-01-08T09:26:10.598Z,6.2
2019-01-08T09:27:11.274Z,6.2
2019-01-08T09:28:11.946Z,6.1
2019-01-08T09:29:12.621Z,6.2
2019-01-08T09:30:13.295Z,6.2
2019-01-08T09:31:15.603Z,6.2
2019-01-08T09:32:15.638Z,6.1
2019-01-08T09:33:16.360Z,6.2
2019-01-08T09:34:17.034Z,6.3
2019-01-08T09:35:17.707Z,6.2
2019-01-08T09:36:18.432Z,6.3
2019-01-08T09:37:19.105Z,6.2
2019-01-08T09:38:19.828Z,6.3
2019-01-08T09:39:20.507Z,6.3
2019-01-08T09:40:21.178Z,6.2
2019-01-08T09:41:21.852Z,6.3
2019-01-08T09:42:22.527Z,6.2
2019-01-08T09:43:23.211Z,6.3
2019-01-08T09:44:23.928Z,6.2
2019-01-08T09:45:24.603Z,6.2
2019-01-08T09:46:25.277Z,6.2
2019-01-08T09:47:25.951Z,6.2
2019-01-08T09:48:26.625Z,6.3
2019-01-08T09:49:27.378Z,6.3
2019-01-08T09:50:28.023Z,6.3
2019-01-08T09:51:28.699Z,6.4
2019-01-08T09:52:29.374Z,6.4
2019-01-08T09:53:30.048Z,6.4
2019-01-08T09:54:30.724Z,6.5
2019-01-08T09:55:31.398Z,6.5
2019-01-08T09:56:32.072Z,6.5
2019-01-08T09:57:32.821Z,6.4
2019-01-08T09:58:33.449Z,6.5
2019-01-08T09:59:35.537Z,6.5
2019-01-08T10:00:35.787Z,6.6
2019-01-08T10:01:36.465Z,6.6
2019-01-08T10:02:37.138Z,6.6
2019-01-08T10:03:37.815Z,6.6
2019-01-08T10:04:38.539Z,6.6
2019-01-08T10:05:39.213Z,6.6
2019-01-08T10:06:39.891Z,6.7
2019-01-08T10:07:40.564Z,6.8
2019-01-08T10:08:41.239Z,6.7
2019-01-08T10:09:41.912Z,6.8
2019-01-08T10:10:42.586Z,6.8
2019-01-08T10:11:43.261Z,6.8
2019-01-08T10:12:43.936Z,6.9
2019-01-08T10:13:44.609Z,6.8
2019-01-08T10:14:45.284Z,6.9
2019-01-08T10:15:45.960Z,7.0
2019-01-08T10:16:46.635Z,6.9
2019-01-08T10:17:47.309Z,6.9
2019-01-08T10:18:47.989Z,7.0
2019-01-08T10:19:48.710Z,7.0
2019-01-08T10:20:49.386Z,6.9
2019-01-08T10:21:50.062Z,7.1
2019-01-08T10:22:50.737Z,7.1
2019-01-08T10:23:51.412Z,7.1
2019-01-08T10:24:52.087Z,7.1
2019-01-08T10:25:52.763Z,7.1
2019-01-08T10:26:53.438Z,7.1
2019-01-08T10:27:54.112Z,7.1
2019-01-08T10:28:54.787Z,7.2
2019-01-08T10:29:57.016Z,7.2
2019-01-08T10:30:56.181Z,7.4
2019-01-08T10:31:56.905Z,7.5
2019-01-08T10:32:57.581Z,7.6
2019-01-08T10:33:58.255Z,7.6
2019-01-08T10:34:59.559Z,7.7
2019-01-08T10:36:00.303Z,7.6
2019-01-08T10:37:00.992Z,7.6
2019-01-08T10:38:01.702Z,7.5
2019-01-08T10:39:02.376Z,7.4
2019-01-08T10:40:03.053Z,7.4
2019-01-08T10:41:03.728Z,7.5
2019-01-08T10:42:04.403Z,7.4
2019-01-08T10:43:05.078Z,7.5
2019-01-08T10:44:05.754Z,7.5
2019-01-08T10:45:06.432Z,7.5
2019-01-08T10:46:07.105Z,7.5
2019-01-08T10:47:07.779Z,7.6
2019-01-08T10:48:08.456Z,7.6
2019-01-08T10:49:09.131Z,7.7
2019-01-08T10:50:09.807Z,7.8
2019-01-08T10:51:10.482Z,7.9
2019-01-08T10:52:11.158Z,7.9
2019-01-08T10:53:11.835Z,7.9
2019-01-08T10:54:12.511Z,8.0
2019-01-08T10:55:13.186Z,8.0
2019-01-08T10:56:13.863Z,8.1
2019-01-08T10:57:14.539Z,8.1
2019-01-08T10:58:15.214Z,8.1
2019-01-08T10:59:15.889Z,8.0
2019-01-08T11:00:16.563Z,8.1
2019-01-08T11:01:17.241Z,8.1
2019-01-08T11:02:17.917Z,8.1
2019-01-08T11:03:18.591Z,8.0
2019-01-08T11:04:19.266Z,7.9
2019-01-08T11:05:19.943Z,7.9
2019-01-08T11:06:20.667Z,7.9
2019-01-08T11:07:21.342Z,7.9
2019-01-08T11:08:22.017Z,8.0
2019-01-08T11:09:22.694Z,8.0
2019-01-08T11:10:23.370Z,7.9
2019-01-08T11:11:24.050Z,7.9
2019-01-08T11:12:24.722Z,8.0
2019-01-08T11:13:25.399Z,8.0
2019-01-08T11:14:26.122Z,8.0
2019-01-08T11:15:26.795Z,8.0
2019-01-08T11:16:27.508Z,8.0
2019-01-08T11:17:28.183Z,7.9
2019-01-08T11:18:28.858Z,7.9
2019-01-08T11:19:29.553Z,7.9
2019-01-08T11:20:30.255Z,7.8
2019-01-08T11:21:30.929Z,7.8
2019-01-08T11:22:31.605Z,7.7
2019-01-08T11:23:32.282Z,7.7
2019-01-08T11:24:32.953Z,7.7
2019-01-08T11:25:33.630Z,7.6
2019-01-08T11:26:34.305Z,7.5
2019-01-08T11:27:34.980Z,7.5
2019-01-08T11:28:35.654Z,7.5
2019-01-08T11:29:36.329Z,7.5
2019-01-08T11:30:37.004Z,7.5
2019-01-08T11:31:37.726Z,7.5
2019-01-08T11:32:38.399Z,7.4
2019-01-08T11:33:39.074Z,7.4
2019-01-08T11:34:39.938Z,7.3
2019-01-08T11:35:42.331Z,7.3
2019-01-08T11:36:42.391Z,7.3
2019-01-08T11:37:43.104Z,7.3
2019-01-08T11:38:43.780Z,7.2
2019-01-08T11:39:44.455Z,7.2
2019-01-08T11:40:45.130Z,7.2
2019-01-08T11:41:45.805Z,7.1
2019-01-08T11:42:46.480Z,7.1
2019-01-08T11:43:47.158Z,7.1
2019-01-08T11:44:47.833Z,7.1
2019-01-08T11:45:48.508Z,7.0
2019-01-08T11:46:49.185Z,7.1
2019-01-08T11:47:50.823Z,7.1
2019-01-08T11:48:51.531Z,7.1
2019-01-08T11:49:52.205Z,7.0
2019-01-08T11:50:52.931Z,7.1
2019-01-08T11:51:53.607Z,7.2
2019-01-08T11:52:54.284Z,7.2
2019-01-08T11:53:54.962Z,7.2
2019-01-08T11:54:55.636Z,7.1
2019-01-08T11:55:56.313Z,7.2
2019-01-08T11:56:56.989Z,7.2
2019-01-08T11:57:57.668Z,7.2
2019-01-08T11:58:58.388Z,7.3
2019-01-08T11:59:59.058Z,7.2
2019-01-08T12:00:59.734Z,7.2
2019-01-08T12:02:00.409Z,7.3
2019-01-08T12:03:01.085Z,7.2
2019-01-08T12:04:01.759Z,7.3
2019-01-08T12:05:02.433Z,7.3
2019-01-08T12:06:03.108Z,7.3
2019-01-08T12:07:03.783Z,7.2
2019-01-08T12:08:04.458Z,7.2
2019-01-08T12:09:05.134Z,7.1
2019-01-08T12:10:05.812Z,7.2
2019-01-08T12:11:06.486Z,7.2
2019-01-08T12:12:07.159Z,7.3
2019-01-08T12:13:07.833Z,7.3
2019-01-08T12:14:08.512Z,7.3
2019-01-08T12:15:09.186Z,7.3
2019-01-08T12:16:09.868Z,7.2
2019-01-08T12:17:10.537Z,7.2
2019-01-08T12:18:11.212Z,7.2
2019-01-08T12:19:11.890Z,7.2
2019-01-08T12:20:12.563Z,7.2
2019-01-08T12:21:13.237Z,7.3
2019-01-08T12:22:13.914Z,7.2
2019-01-08T12:23:14.589Z,7.3
2019-01-08T12:24:15.262Z,7.3
2019-01-08T12:25:15.936Z,7.3
2019-01-08T12:26:16.612Z,7.3
2019-01-08T12:27:17.286Z,7.4
2019-01-08T12:28:17.959Z,7.4
2019-01-08T12:29:18.633Z,7.4
2019-01-08T12:30:19.308Z,7.4
2019-01-08T12:31:19.982Z,7.4
2019-01-08T12:32:20.658Z,7.4
2019-01-08T12:33:21.334Z,7.4
2019-01-08T12:34:22.008Z,7.5
2019-01-08T12:35:22.683Z,7.4
2019-01-08T12:36:23.360Z,7.5
2019-01-08T12:37:24.034Z,7.5
2019-01-08T12:38:24.711Z,7.4
2019-01-08T12:39:25.396Z,7.5
2019-01-08T12:40:26.109Z,7.5
2019-01-08T12:41:26.787Z,7.4
2019-01-08T12:42:27.458Z,7.5
2019-01-08T12:43:28.136Z,7.4
2019-01-08T12:44:28.809Z,7.5
2019-01-08T12:45:29.484Z,7.5
2019-01-08T12:46:30.165Z,7.4
2019-01-08T12:47:30.837Z,7.4
2019-01-08T12:48:31.510Z,7.4
2019-01-08T12:49:32.184Z,7.4
2019-01-08T12:50:32.859Z,7.4
2019-01-08T12:51:33.534Z,7.5
2019-01-08T12:52:34.208Z,7.5
2019-01-08T12:53:34.883Z,7.5
2019-01-08T12:54:35.559Z,7.5
2019-01-08T12:55:36.234Z,7.5
2019-01-08T12:56:36.907Z,7.5
2019-01-08T12:57:37.583Z,7.5
2019-01-08T12:58:38.257Z,7.6
2019-01-08T12:59:38.963Z,7.5
2019-01-08T13:00:39.606Z,7.6
2019-01-08T13:01:40.282Z,7.5
2019-01-08T13:02:40.959Z,7.5
2019-01-08T13:03:41.634Z,7.6
2019-01-08T13:04:42.308Z,7.5
2019-01-08T13:05:42.986Z,7.6
2019-01-08T13:06:43.811Z,7.6
2019-01-08T13:07:44.440Z,7.6
2019-01-08T13:08:45.114Z,7.5
2019-01-08T13:09:45.790Z,7.5
2019-01-08T13:10:46.465Z,7.6
2019-01-08T13:11:47.139Z,7.5
2019-01-08T13:12:47.815Z,7.5
2019-01-08T13:13:48.488Z,7.5
2019-01-08T13:14:49.162Z,7.5
2019-01-08T13:15:49.837Z,7.5
2019-01-08T13:16:50.512Z,7.5
2019-01-08T13:17:51.188Z,7.5
2019-01-08T13:18:51.862Z,7.6
2019-01-08T13:19:52.536Z,7.6
2019-01-08T13:20:53.213Z,7.6
2019-01-08T13:21:53.887Z,7.6
2019-01-08T13:22:54.610Z,7.6
2019-01-08T13:23:55.285Z,7.8
2019-01-08T13:24:55.959Z,7.7
2019-01-08T13:25:56.634Z,7.7
2019-01-08T13:26:57.307Z,7.7
2019-01-08T13:27:57.984Z,7.7
2019-01-08T13:28:58.658Z,7.7
2019-01-08T13:29:59.332Z,7.7
2019-01-08T13:31:00.007Z,7.7
2019-01-08T13:32:00.683Z,7.8
2019-01-08T13:33:01.355Z,7.8
2019-01-08T13:34:02.030Z,7.8
2019-01-08T13:35:02.707Z,7.8
2019-01-08T13:36:03.380Z,7.8
2019-01-08T13:37:04.053Z,8.0
2019-01-08T13:38:04.730Z,7.9
2019-01-08T13:39:05.405Z,7.9
2019-01-08T13:40:06.081Z,8.0
2019-01-08T13:41:06.754Z,8.0
2019-01-08T13:42:07.427Z,8.0
2019-01-08T13:43:08.105Z,8.0
2019-01-08T13:44:08.777Z,8.0
2019-01-08T13:45:09.451Z,8.0
2019-01-08T13:46:10.130Z,8.0
2019-01-08T13:47:10.804Z,7.9
2019-01-08T13:48:11.476Z,7.9
2019-01-08T13:49:12.150Z,7.9
2019-01-08T13:50:12.827Z,7.8
2019-01-08T13:51:13.497Z,7.8
2019-01-08T13:52:14.171Z,7.8
2019-01-08T13:53:14.846Z,7.7
2019-01-08T13:54:15.519Z,7.7
2019-01-08T13:55:16.196Z,7.8
2019-01-08T13:56:16.868Z,7.8